Crescent City, CA (95531)

4:22 PM PDT on October 22, 2014 (GMT -0700)
KCACRESC6 | Change Station
CLOSE
Current Station
Personal Weather Station
Location: Crescent City, CA
Elevation: 55 ft
Nearby Weather Stations

Elev 55 ft 41.81 °N, 124.18 °W | Updated 1 minute ago

Overcast
Overcast
63.7 °F
Feels Like 63.7 °F
N
11.5
Wind Variable Wind from SSE
Gusts 21.0 mph

Today
High -- | Low -- °F
--% Chance of Precip.
Yesterday
High -- | Low -- °F
Precip. -- in
7:37 AM 6:24 PM
Waning Crescent, 1% visible
Pressure 29.89 in
Visibility 10.0 miles
Clouds Overcast 4000 ft
Dew Point 56 °F
Humidity 76%
Rainfall -999.00 in
Snow Depth Not available.
UV 1 out of 12
Pollen 2.70 out of 12
Air Quality Not available.
Flu Activity Sporadic
METAR KCEC 222256Z AUTO 18024G33KT 10SM OVC040 17/13 A2989 RMK AO2 PK WND 17033/2252 RAE2159 SLP122 P0000 T01720133

More Conditions Fewer Conditions

Pressure 29.89 in
Visibility 10.0 miles
Clouds Overcast 4000 ft
Dew Point 56 °F
Humidity 76%
Rainfall -999.00 in
Snow Depth Not available.
UV 1 out of 12
Pollen 2.70 out of 12
Air Quality Not available.
Flu Activity Sporadic
METAR KCEC 222256Z AUTO 18024G33KT 10SM OVC040 17/13 A2989 RMK AO2 PK WND 17033/2252 RAE2159 SLP122 P0000 T01720133

More Conditions Fewer Conditions

10-Day Weather Forecast

Almanac

Astronomy

Oct. 22, 2014 Rise Set
Actual Time 7:37 AM PDT 6:24 PM PDT
Civil Twilight 7:08 AM PDT 6:52 PM PDT
Nautical Twilight 6:36 AM PDT 7:25 PM PDT
Astronomical Twilight 6:04 AM PDT 7:57 PM PDT
Moon 6:22 AM PDT 5:55 PM PDT
Length of Visible Light 11h 44m
Length of Day
10h 47m
Tomorrow will be 2m 38s shorter.
Waning Crescent, 1% of the Moon is Illuminated
Today
Waning Crescent
Oct 23
New
Oct 30
First Quarter
Nov 6
Full
Nov 14
Last Quarter

Today's Extremes

State Highs State Lows

Community

WunderPhotos

Upload Photos

1,764,078 photos uploaded!

WunderBlogs® & News

Nearby

Snow Depth

Station Depth Elevation
Adin Mountain 0 in 6200 ft
Rubicon #2 0 in 7500 ft
Monitor Pass 0 in 8350 ft
Summit Meadow 0 in 9122 ft

Earthquake Activity

City Distance Mag. Time & Date
Crescent City, California 42 miles 2.6 1:22 AM PDT
2014-10-21
Minimum magnitude displayed is 2.5.

Coastal Water Temperatures

Place Temperature
Crescent City, CA 60.1 °F
North Spit, CA 57.9 °F
Port Orford, OR 59.0 °F

Nearby Weather Stations